Lefor, North Dakota
Current Conditions -  °F | °C
As of 8:56 AM on Thursday 30 Oct 2014 (Local Time) from KDIK Reporting Station
Haze Haze  
Wind Chill: 28°   Ceiling: 900
Heat Index: 36°   Visibility: 5mi
Dew Point: 33°   Wind: 10mph
Humidity: 89%   Direction: 350°N
Pressure: 30.3"   Gusts: NA
Location:  46.69°N, 102.56°W
Report Text: KDIK 301456Z AUTO 35009KT 5SM BR BKN009 OVC018 02/01 A3030 RMK AO2 SLP279 T00220006 53028
Loading
Personal Weather Stations






























Interactive Weather Map
Tropical Storm Tracking
New forecast layout! Learn more

10-Day Weather Forecast

Advertisements
Track Severe Weather on mobile